Queen Of New West. — VDQQ — position and weather

sailwx.info

Track history (hours):
 
Tides and Currents Weather Stations Pressure Air Temp Water Temp Dewpoint Dewpoint Depression Visibility Wind Speed Wind Dir Waves Ship Positions

Queen Of New West.

Last reported at 2018-Jul-22 21:30 UTC. Time now 2018-Jul-22 21:55 UTC.
Position N 48°48' W 123°21'.

Length 130 m; draft 4 m.

Type: Passenger vessel. MMSI: 316001255.

Date/timePositionNaut miles runAvg speedWind from/ knotsBaromVisibWave heightAir tempDewpointWater temp
2018-Jul-22 21:30N 48°48' W 123°21'714.3
2018-Jul-22 21:00N 48°41' W 123°25'0 0.0
2018-Jul-22 20:30N 48°41' W 123°25'917.3
2018-Jul-22 20:00N 48°50' W 123°21'815.3
2018-Jul-22 19:28N 48°57' W 123°14'511.7
2018-Jul-22 19:00N 49°00' W 123°08'0 0.0
2018-Jul-22 18:30N 49°00' W 123°08'814.9
2018-Jul-22 18:00N 48°55' W 123°15'713.5
2018-Jul-22 17:30N 48°49' W 123°21'815.9
2018-Jul-22 17:00N 48°41' W 123°25'0 0.0
2018-Jul-22 16:30N 48°41' W 123°25'713.8
2018-Jul-22 16:00N 48°48' W 123°21'1515.1
2018-Jul-22 15:00N 49°00' W 123°08'0 0.0
2018-Jul-22 14:30N 49°00' W 123°08'0 0.0
2018-Jul-22 13:57N 49°00' W 123°08'0 0.0
2018-Jul-22 13:15N 49°00' W 123°08'0 0.0
2018-Jul-22 12:57N 49°00' W 123°08'0 0.0
2018-Jul-22 12:15N 49°00' W 123°08'0 0.0
2018-Jul-22 11:48N 49°00' W 123°08'0 0.0
2018-Jul-22 11:30N 49°00' W 123°08'0 0.0
2018-Jul-22 11:00N 49°00' W 123°08'0 0.0
2018-Jul-22 10:27N 49°00' W 123°08'0 0.0
2018-Jul-22 10:00N 49°00' W 123°08'0 0.0
2018-Jul-22 09:21N 49°00' W 123°08'0 0.0
2018-Jul-22 08:54N 49°00' W 123°08'0 0.0
2018-Jul-22 08:30N 49°00' W 123°08'0 0.0
2018-Jul-22 07:57N 49°00' W 123°08'0 0.0
2018-Jul-22 07:03N 49°00' W 123°08'0 0.0
2018-Jul-22 06:54N 49°00' W 123°08'0 0.0
2018-Jul-22 06:30N 49°00' W 123°08'0 0.0
2018-Jul-22 05:24N 49°00' W 123°08'0 0.0
2018-Jul-22 04:54N 49°00' W 123°08'0 0.0
2018-Jul-22 04:31N 49°00' W 123°08'816.2
2018-Jul-22 04:00N 48°54' W 123°16'816.5
2018-Jul-22 03:30N 48°47' W 123°21'611.3
2018-Jul-22 03:00N 48°41' W 123°25'2 3.5
2018-Jul-22 02:30N 48°43' W 123°24'917.4
2018-Jul-22 02:00N 48°52' W 123°19'815.6
2018-Jul-22 01:30N 48°58' W 123°12'4 8.1
2018-Jul-22 01:00N 49°00' W 123°08'5 9.9
2018-Jul-22 00:28N 48°56' W 123°13'816.8
2018-Jul-22 00:00N 48°51' W 123°21'917.7
2018-Jul-21 23:30N 48°42' W 123°24'1 1.4
2018-Jul-21 23:00N 48°41' W 123°25'612.8
2018-Jul-21 22:30N 48°47' W 123°21'917.5
2018-Jul-21 22:00N 48°55' W 123°15'711.6
2018-Jul-21 21:24N 49°00' W 123°08'0 0.0
2018-Jul-21 21:00N 49°00' W 123°08'1118.0
2018-Jul-21 20:25N 48°52' W 123°18'615.6
2018-Jul-21 20:00N 48°46' W 123°22'510.3
2018-Jul-21 19:31N 48°41' W 123°25'4 8.3
2018-Jul-21 19:00N 48°45' W 123°22'1016.3
2018-Jul-21 18:23N 48°55' W 123°16'819.4
2018-Jul-21 18:00N 49°00' W 123°08'0 0.8
2018-Jul-21 17:30N 49°00' W 123°08'0 0.1
2018-Jul-21 17:00N 49°00' W 123°08'0 0.0
2018-Jul-21 16:30N 49°00' W 123°08'814.6
2018-Jul-21 15:59N 48°54' W 123°15'714.2
2018-Jul-21 15:30N 48°49' W 123°21'815.4
2018-Jul-21 15:00N 48°41' W 123°25'0 0.0
2018-Jul-21 14:30N 48°41' W 123°25'1614.7
2018-Jul-21 13:25N 48°56' W 123°15'6 1.8
2018-Jul-21 09:58N 49°00' W 123°08'0 0.0
2018-Jul-21 09:28N 49°00' W 123°08'0 0.0
2018-Jul-21 08:58N 49°00' W 123°08'0 0.0
2018-Jul-21 08:29N 49°00' W 123°08'611.7
2018-Jul-21 07:58N 48°55' W 123°13'715.6
2018-Jul-21 07:31N 48°51' W 123°21'918.5
2018-Jul-21 07:00N 48°42' W 123°24'0 0.3
2018-Jul-21 06:29N 48°41' W 123°25'814.4
2018-Jul-21 05:57N 48°49' W 123°21'715.0
2018-Jul-21 05:30N 48°55' W 123°17'815.6
2018-Jul-21 05:00N 49°00' W 123°08'0 0.3
2018-Jul-21 04:30N 49°00' W 123°08'815.1
2018-Jul-21 04:00N 48°55' W 123°15'612.9
2018-Jul-21 03:30N 48°49' W 123°21'816.2
2018-Jul-21 03:00N 48°41' W 123°25'0 0.0
2018-Jul-21 02:30N 48°41' W 123°25'713.7
2018-Jul-21 02:00N 48°48' W 123°21'815.8
2018-Jul-21 01:29N 48°55' W 123°16'714.8
2018-Jul-21 01:00N 49°00' W 123°08'0 0.0
2018-Jul-21 00:30N 49°00' W 123°08'815.6
2018-Jul-20 23:58N 48°54' W 123°16'613.8
2018-Jul-20 23:30N 48°48' W 123°21'714.2
2018-Jul-20 22:59N 48°41' W 123°25'0 0.0
2018-Jul-20 22:30N 48°41' W 123°25'612.9
2018-Jul-20 22:00N 48°47' W 123°21'916.1
2018-Jul-20 21:28N 48°55' W 123°15'715.4
2018-Jul-20 21:01N 49°00' W 123°08'0 0.1
2018-Jul-20 20:30N 49°00' W 123°08'1017.0
2018-Jul-20 19:56N 48°53' W 123°18'512.7
2018-Jul-20 19:30N 48°48' W 123°21'714.2
2018-Jul-20 19:00N 48°41' W 123°25'0 0.1
2018-Jul-20 18:30N 48°41' W 123°25'815.0
2018-Jul-20 18:00N 48°48' W 123°21'814.6
2018-Jul-20 17:28N 48°56' W 123°15'714.9
2018-Jul-20 17:01N 49°00' W 123°08'0 0.0
2018-Jul-20 16:30N 49°00' W 123°08'814.9
2018-Jul-20 15:59N 48°54' W 123°15'714.4
2018-Jul-20 15:30N 48°48' W 123°20'715.0
2018-Jul-20 15:00N 48°41' W 123°25'0 0.0
2018-Jul-20 14:30N 48°41' W 123°25'714.6
2018-Jul-20 14:00N 48°48' W 123°21'815.4
2018-Jul-20 13:27N 48°56' W 123°15'6 6.3
2018-Jul-20 12:26N 49°00' W 123°08'0 0.0
2018-Jul-20 10:39N 49°00' W 123°08'0 0.0
2018-Jul-20 10:15N 49°00' W 123°08'0 0.0
2018-Jul-20 10:00N 49°00' W 123°08'0 0.0
2018-Jul-20 09:21N 49°00' W 123°08'0 0.0
2018-Jul-20 08:00N 49°00' W 123°08'0 0.0
2018-Jul-20 07:27N 49°00' W 123°08'0 0.0
2018-Jul-20 07:00N 49°00' W 123°08'0 0.0
2018-Jul-20 06:30N 49°00' W 123°08'0 0.0
2018-Jul-20 06:00N 49°00' W 123°08'0 0.0
2018-Jul-20 05:30N 49°00' W 123°08'0 0.0
2018-Jul-20 04:54N 49°00' W 123°08'0 0.0
2018-Jul-20 04:30N 49°00' W 123°08'510.5
2018-Jul-20 04:00N 48°56' W 123°13'917.3
2018-Jul-20 03:31N 48°49' W 123°21'816.7
2018-Jul-20 03:01N 48°41' W 123°25'0 0.1
2018-Jul-20 02:30N 48°41' W 123°25'816.5
2018-Jul-20 02:00N 48°49' W 123°21'612.2
2018-Jul-20 01:30N 48°55' W 123°16'815.2
2018-Jul-20 01:00N 49°00' W 123°08'0 0.2
2018-Jul-20 00:30N 49°00' W 123°08'815.6
2018-Jul-19 23:59N 48°54' W 123°16'612.2
2018-Jul-19 23:30N 48°49' W 123°21'816.3
2018-Jul-19 23:00N 48°41' W 123°25'0 0.0
2018-Jul-19 22:31N 48°41' W 123°25'714.5
2018-Jul-19 22:00N 48°48' W 123°21'814.5
2018-Jul-19 21:28N 48°55' W 123°16'715.1
2018-Jul-19 20:59N 49°00' W 123°08'0 0.0
2018-Jul-19 20:30N 49°00' W 123°08'816.1
2018-Jul-19 20:00N 48°54' W 123°16'612.9
2018-Jul-19 19:30N 48°48' W 123°20'815.3
2018-Jul-19 19:00N 48°41' W 123°25'0 0.0
2018-Jul-19 18:30N 48°41' W 123°25'815.1
2018-Jul-19 18:00N 48°49' W 123°21'713.8
2018-Jul-19 17:30N 48°55' W 123°16'815.5
2018-Jul-19 17:00N 49°00' W 123°08'0 0.0
2018-Jul-19 16:30N 49°00' W 123°08'815.8
2018-Jul-19 15:59N 48°54' W 123°16'816.0
2018-Jul-19 15:30N 48°47' W 123°21'612.3
2018-Jul-19 15:00N 48°41' W 123°25'1 3.0
2018-Jul-19 14:30N 48°43' W 123°24'1717.1
2018-Jul-19 13:29N 48°58' W 123°11'3 6.7
2018-Jul-19 13:01N 49°00' W 123°08'0 0.0
2018-Jul-19 12:29N 49°00' W 123°08'0 0.0
2018-Jul-19 11:59N 49°00' W 123°08'0 0.0
2018-Jul-19 11:27N 49°00' W 123°08'0 0.0
2018-Jul-19 10:57N 49°00' W 123°08'0 0.0
2018-Jul-19 10:27N 49°00' W 123°08'0 0.0
2018-Jul-19 09:57N 49°00' W 123°08'0 0.0
2018-Jul-19 09:27N 49°00' W 123°08'0 0.0
2018-Jul-19 08:57N 49°00' W 123°08'0 0.0
2018-Jul-19 08:27N 49°00' W 123°08'0 0.0
2018-Jul-19 07:57N 49°00' W 123°08'0 0.0
2018-Jul-19 07:27N 49°00' W 123°08'0 0.0
2018-Jul-19 06:57N 49°00' W 123°08'0 0.0
2018-Jul-19 06:27N 49°00' W 123°08'0 0.0
2018-Jul-19 05:57N 49°00' W 123°08'0 0.0
2018-Jul-19 05:27N 49°00' W 123°08'0 0.0
2018-Jul-19 04:57N 49°00' W 123°08'0 0.0
2018-Jul-19 04:27N 49°00' W 123°08'612.6
2018-Jul-19 03:58N 48°56' W 123°13'716.1
2018-Jul-19 03:30N 48°50' W 123°21'917.6
2018-Jul-19 03:01N 48°42' W 123°25'0 0.2
2018-Jul-19 02:30N 48°41' W 123°25'814.8
2018-Jul-19 01:59N 48°49' W 123°21'713.6
2018-Jul-19 01:31N 48°55' W 123°17'815.7
2018-Jul-19 00:59N 49°00' W 123°08'0 0.0
2018-Jul-19 00:30N 49°00' W 123°08'712.7
2018-Jul-18 23:58N 48°55' W 123°15'714.9
2018-Jul-18 23:30N 48°50' W 123°21'817.0
2018-Jul-18 23:01N 48°41' W 123°25'0 0.1
2018-Jul-18 22:31N 48°41' W 123°25'713.4
2018-Jul-18 22:00N 48°48' W 123°21'815.5
2018-Jul-18 21:29N 48°55' W 123°16'715.6
2018-Jul-18 21:00N 49°00' W 123°08'0 0.1
2018-Jul-18 20:30N 49°00' W 123°08'1017.4
2018-Jul-18 19:56N 48°53' W 123°18'614.2
2018-Jul-18 19:30N 48°47' W 123°21'612.4
2018-Jul-18 19:00N 48°41' W 123°25'0 0.1
2018-Jul-18 18:31N 48°41' W 123°25'816.7
2018-Jul-18 18:00N 48°50' W 123°21'917.2
2018-Jul-18 17:28N 48°57' W 123°13'510.1
2018-Jul-18 17:00N 49°00' W 123°08'0 0.0
2018-Jul-18 16:29N 49°00' W 123°08'715.0
2018-Jul-18 16:00N 48°55' W 123°15'814.9
2018-Jul-18 15:30N 48°48' W 123°21'714.9
2018-Jul-18 15:01N 48°41' W 123°25'0 0.1
2018-Jul-18 14:30N 48°41' W 123°25'1514.7
2018-Jul-18 13:30N 48°55' W 123°16'714.6
2018-Jul-18 12:59N 49°00' W 123°08'0 0.0
2018-Jul-18 12:30N 49°00' W 123°08'0 0.0
2018-Jul-18 12:00N 49°00' W 123°08'0 0.0
2018-Jul-18 11:30N 49°00' W 123°08'0 0.0
2018-Jul-18 10:28N 49°00' W 123°08'0 0.0
2018-Jul-18 10:01N 49°00' W 123°08'0 0.0
2018-Jul-18 09:30N 49°00' W 123°08'0 0.0
2018-Jul-18 09:01N 49°00' W 123°08'0 0.0
2018-Jul-18 08:31N 49°00' W 123°08'0 0.0
2018-Jul-18 08:01N 49°00' W 123°08'0 0.0
2018-Jul-18 07:31N 49°00' W 123°08'0 0.0
2018-Jul-18 07:01N 49°00' W 123°08'0 0.0
2018-Jul-18 06:31N 49°00' W 123°08'0 0.0
2018-Jul-18 05:58N 49°00' W 123°08'0 0.0
2018-Jul-18 05:31N 49°00' W 123°08'0 0.0
2018-Jul-18 04:58N 49°00' W 123°08'0 0.0
2018-Jul-18 04:21N 49°00' W 123°08'615.3
2018-Jul-18 03:59N 48°56' W 123°13'816.5
2018-Jul-18 03:31N 48°50' W 123°21'917.4
2018-Jul-18 03:00N 48°41' W 123°25'0 0.1
2018-Jul-18 02:30N 48°41' W 123°25'814.7
2018-Jul-18 01:59N 48°49' W 123°21'914.5
2018-Jul-18 01:21N 48°57' W 123°14'515.2
2018-Jul-18 01:00N 49°00' W 123°08'0 0.0
2018-Jul-18 00:31N 49°00' W 123°08'612.9
2018-Jul-18 00:01N 48°55' W 123°14'816.7
2018-Jul-17 23:30N 48°48' W 123°21'714.6
2018-Jul-17 23:01N 48°41' W 123°25'0 0.0
2018-Jul-17 22:31N 48°41' W 123°25'713.4
2018-Jul-17 22:00N 48°48' W 123°21'1017.0
2018-Jul-17 21:26N 48°56' W 123°14'613.0
2018-Jul-17 21:00N 49°00' W 123°08'0 0.0
2018-Jul-17 20:30N 49°00' W 123°08'816.3
2018-Jul-17 19:59N 48°54' W 123°16'613.3
2018-Jul-17 19:30N 48°48' W 123°21'714.7
2018-Jul-17 19:00N 48°41' W 123°25'0 0.0
2018-Jul-17 18:31N 48°41' W 123°25'713.5
2018-Jul-17 18:00N 48°48' W 123°21'815.4
2018-Jul-17 17:27N 48°55' W 123°15'715.3
2018-Jul-17 17:00N 49°00' W 123°08'0 0.0
2018-Jul-17 16:30N 49°00' W 123°08'816.0
2018-Jul-17 15:59N 48°54' W 123°16'613.2
2018-Jul-17 15:30N 48°48' W 123°20'714.9
2018-Jul-17 15:00N 48°41' W 123°25'0 0.1
2018-Jul-17 14:31N 48°41' W 123°25'714.6
2018-Jul-17 14:00N 48°48' W 123°21'713.9
2018-Jul-17 13:31N 48°55' W 123°16'815.7
2018-Jul-17 13:00N 49°00' W 123°08'0 0.0
2018-Jul-17 12:30N 49°00' W 123°08'0 0.0
2018-Jul-17 11:58N 49°00' W 123°08'0 0.0
2018-Jul-17 11:25N 49°00' W 123°08'0 0.0
2018-Jul-17 10:58N 49°00' W 123°08'0 0.0
2018-Jul-17 10:28N 49°00' W 123°08'0 0.0
2018-Jul-17 09:56N 49°00' W 123°08'0 0.0
2018-Jul-17 09:26N 49°00' W 123°08'0 0.0
2018-Jul-17 08:58N 49°00' W 123°08'0 0.0
2018-Jul-17 08:19N 49°00' W 123°08'0 0.0
2018-Jul-17 07:58N 49°00' W 123°08'0 0.0
2018-Jul-17 07:25N 49°00' W 123°08'0 0.0
2018-Jul-17 06:55N 49°00' W 123°08'0 0.0
2018-Jul-17 06:07N 49°00' W 123°08'0 0.0
2018-Jul-17 05:55N 49°00' W 123°08'0 0.0
2018-Jul-17 05:19N 49°00' W 123°08'0 0.0
2018-Jul-17 04:52N 49°00' W 123°08'0 0.0
2018-Jul-17 04:28N 49°00' W 123°08'613.1
2018-Jul-17 04:00N 48°56' W 123°14'815.0
2018-Jul-17 03:30N 48°49' W 123°20'817.0
2018-Jul-17 03:00N 48°41' W 123°25'0 0.0
2018-Jul-17 02:30N 48°41' W 123°25'815.6
2018-Jul-17 02:00N 48°49' W 123°21'714.7
2018-Jul-17 01:30N 48°55' W 123°15'713.2
2018-Jul-17 00:58N 49°00' W 123°08'0 0.0
2018-Jul-17 00:30N 49°00' W 123°08'1414.6
2018-Jul-16 23:30N 48°49' W 123°21'815.4
2018-Jul-16 23:00N 48°41' W 123°25'0 0.0
2018-Jul-16 22:30N 48°41' W 123°25'714.5
2018-Jul-16 22:00N 48°48' W 123°21'815.0
2018-Jul-16 21:30N 48°55' W 123°16'715.0
2018-Jul-16 21:00N 49°00' W 123°08'0 0.0
2018-Jul-16 20:30N 49°00' W 123°08'814.5
2018-Jul-16 19:59N 48°54' W 123°15'715.0
2018-Jul-16 19:30N 48°48' W 123°21'714.7
2018-Jul-16 19:00N 48°41' W 123°25'0 0.0
2018-Jul-16 18:30N 48°41' W 123°25'713.4
2018-Jul-16 18:00N 48°48' W 123°21'816.0
2018-Jul-16 17:30N 48°55' W 123°16'815.1
2018-Jul-16 17:00N 49°00' W 123°08'0 0.0
2018-Jul-16 16:30N 49°00' W 123°08'714.5
2018-Jul-16 16:00N 48°55' W 123°15'713.5
2018-Jul-16 15:30N 48°49' W 123°20'816.2
2018-Jul-16 15:00N 48°41' W 123°25'0 0.0
2018-Jul-16 14:29N 48°41' W 123°25'613.1
2018-Jul-16 14:00N 48°47' W 123°21'815.6
2018-Jul-16 13:30N 48°55' W 123°17'813.5
2018-Jul-16 12:54N 49°00' W 123°08'0 0.0
2018-Jul-16 12:28N 49°00' W 123°08'0 0.0
2018-Jul-16 09:54N 49°00' W 123°08'0 0.0
2018-Jul-16 09:18N 49°00' W 123°08'0 0.0
2018-Jul-16 08:48N 49°00' W 123°08'0 0.0
2018-Jul-16 08:24N 49°00' W 123°08'0 0.0
2018-Jul-16 08:00N 49°00' W 123°08'0 0.0
2018-Jul-16 06:42N 49°00' W 123°08'0 0.0
2018-Jul-16 06:28N 49°00' W 123°08'715.4
2018-Jul-16 06:00N 48°55' W 123°15'714.5
2018-Jul-16 05:30N 48°49' W 123°21'814.4
2018-Jul-16 04:58N 48°41' W 123°25'0 0.9
2018-Jul-16 04:30N 48°42' W 123°24'918.3
2018-Jul-16 04:00N 48°51' W 123°21'1017.4
2018-Jul-16 03:25N 48°59' W 123°11'3 7.0
2018-Jul-16 03:00N 49°00' W 123°08'3 6.2
2018-Jul-16 02:30N 48°58' W 123°10'917.5
2018-Jul-16 01:59N 48°52' W 123°21'817.2
2018-Jul-16 01:30N 48°44' W 123°24'2 4.7
2018-Jul-16 01:00N 48°41' W 123°25'2 4.1
2018-Jul-16 00:30N 48°43' W 123°24'816.6
2018-Jul-16 00:00N 48°52' W 123°21'814.9
2018-Jul-15 23:27N 48°58' W 123°12'4 9.0
2018-Jul-15 23:00N 49°00' W 123°08'1 2.2
2018-Jul-15 22:29N 48°59' W 123°09'1020.5
2018-Jul-15 22:00N 48°52' W 123°19'714.5
2018-Jul-15 21:30N 48°45' W 123°23'4 7.7
2018-Jul-15 21:00N 48°41' W 123°25'1 2.2
2018-Jul-15 20:30N 48°42' W 123°26'917.7
2018-Jul-15 19:59N 48°51' W 123°21'611.9
2018-Jul-15 19:27N 48°55' W 123°15'714.8
2018-Jul-15 19:00N 49°00' W 123°08'0 0.1
2018-Jul-15 18:30N 49°00' W 123°08'0 0.0
2018-Jul-15 18:00N 49°00' W 123°08'0 0.9
2018-Jul-15 17:31N 49°00' W 123°08'2 3.0
2018-Jul-15 16:58N 48°58' W 123°08'5 6.4
2018-Jul-15 16:14N 48°55' W 123°03'0 0.4
2018-Jul-15 16:00N 48°55' W 123°03'3 5.5
2018-Jul-15 15:26N 48°58' W 123°06'3 7.1
2018-Jul-15 15:01N 49°00' W 123°08'0 0.0
2018-Jul-15 13:35N 49°00' W 123°08'0 0.0
2018-Jul-15 13:17N 49°00' W 123°08'0 0.0
2018-Jul-15 12:56N 49°00' W 123°08'0 0.0
2018-Jul-15 11:55N 49°00' W 123°08'0 0.0
2018-Jul-15 11:16N 49°00' W 123°08'0 0.0
2018-Jul-15 10:58N 49°00' W 123°08'0 0.0
2018-Jul-15 10:19N 49°00' W 123°08'0 0.0
2018-Jul-15 09:52N 49°00' W 123°08'0 0.0
2018-Jul-15 09:28N 49°00' W 123°08'0 0.0
2018-Jul-15 08:58N 49°00' W 123°08'0 0.0
2018-Jul-15 08:28N 49°00' W 123°08'0 0.0
2018-Jul-15 05:31N 49°00' W 123°08'0 0.0
2018-Jul-15 05:22N 49°00' W 123°08'0 0.0
2018-Jul-15 04:58N 49°00' W 123°08'0 0.0
2018-Jul-15 04:25N 49°00' W 123°08'0 0.0
2018-Jul-15 03:58N 49°00' W 123°08'0 0.0
2018-Jul-15 03:28N 49°00' W 123°08'0 0.0
2018-Jul-15 02:58N 49°00' W 123°08'0 0.0
2018-Jul-15 02:28N 49°00' W 123°08'0 0.0
2018-Jul-15 01:55N 49°00' W 123°08'0 0.0
2018-Jul-15 01:28N 49°00' W 123°08'0 0.0
2018-Jul-15 01:00N 49°00' W 123°08'3 5.4
2018-Jul-15 00:29N 48°58' W 123°10'714.8
2018-Jul-15 00:00N 48°53' W 123°18'510.6
2018-Jul-14 23:30N 48°48' W 123°21'713.8
2018-Jul-14 23:00N 48°41' W 123°25'0 0.9
2018-Jul-14 22:30N 48°42' W 123°24'917.9
2018-Jul-14 22:00N 48°51' W 123°21'815.1
2018-Jul-14 21:30N 48°56' W 123°14'510.9
2018-Jul-14 21:00N 49°00' W 123°08'0 0.5
2018-Jul-14 20:30N 49°00' W 123°08'918.3
2018-Jul-14 20:00N 48°53' W 123°17'815.4
2018-Jul-14 19:30N 48°46' W 123°21'5 9.0
2018-Jul-14 18:57N 48°41' W 123°25'0 0.6
2018-Jul-14 18:31N 48°42' W 123°25'612.6
2018-Jul-14 18:00N 48°47' W 123°21'816.0
2018-Jul-14 17:30N 48°55' W 123°16'815.5
2018-Jul-14 17:00N 49°00' W 123°08'0 0.2
2018-Jul-14 16:30N 49°00' W 123°08'714.8
2018-Jul-14 16:00N 48°55' W 123°15'713.3
2018-Jul-14 15:30N 48°49' W 123°20'816.2
2018-Jul-14 15:00N 48°41' W 123°25'0 0.0
2018-Jul-14 14:29N 48°41' W 123°25'1515.1
2018-Jul-14 13:30N 48°55' W 123°16'714.6
2018-Jul-14 13:00N 49°00' W 123°08'0 0.0
2018-Jul-14 12:29N 49°00' W 123°08'0 0.0
2018-Jul-14 12:00N 49°00' W 123°08'0 0.0
2018-Jul-14 11:27N 49°00' W 123°08'0 0.0
2018-Jul-14 10:57N 49°00' W 123°08'0 0.0
2018-Jul-14 10:27N 49°00' W 123°08'0 0.0
2018-Jul-14 09:09N 49°00' W 123°08'0 0.0
2018-Jul-14 08:57N 49°00' W 123°08'0 0.0
2018-Jul-14 08:21N 49°00' W 123°08'615.0
2018-Jul-14 07:55N 48°55' W 123°14'716.3
2018-Jul-14 07:29N 48°50' W 123°21'918.1
2018-Jul-14 07:00N 48°42' W 123°25'0 0.4
2018-Jul-14 06:30N 48°41' W 123°25'713.5
2018-Jul-14 06:00N 48°48' W 123°21'915.9
2018-Jul-14 05:25N 48°56' W 123°14'614.7
2018-Jul-14 05:00N 49°00' W 123°08'0 0.0
2018-Jul-14 04:30N 49°00' W 123°08'816.2
2018-Jul-14 04:00N 48°54' W 123°16'612.4
2018-Jul-14 03:30N 48°49' W 123°20'815.6
2018-Jul-14 03:00N 48°41' W 123°25'0 0.0
2018-Jul-14 02:30N 48°41' W 123°25'917.2
2018-Jul-14 02:01N 48°50' W 123°21'713.0
2018-Jul-14 01:30N 48°55' W 123°15'714.5
2018-Jul-14 01:00N 49°00' W 123°08'0 0.0
2018-Jul-14 00:30N 49°00' W 123°08'713.5
2018-Jul-14 00:00N 48°55' W 123°14'713.9
2018-Jul-13 23:30N 48°49' W 123°20'817.0
2018-Jul-13 23:00N 48°41' W 123°25'0 0.0
2018-Jul-13 22:30N 48°41' W 123°25'815.3
2018-Jul-13 22:00N 48°49' W 123°21'714.5
2018-Jul-13 21:30N 48°55' W 123°16'714.7
2018-Jul-13 21:00N 49°00' W 123°08'0 0.1
2018-Jul-13 20:29N 49°00' W 123°08'817.4
2018-Jul-13 20:00N 48°54' W 123°16'816.2
2018-Jul-13 19:30N 48°47' W 123°21'611.3
2018-Jul-13 19:00N 48°41' W 123°25'0 0.1
2018-Jul-13 18:30N 48°41' W 123°25'714.2
2018-Jul-13 18:00N 48°48' W 123°21'815.9
2018-Jul-13 17:30N 48°55' W 123°16'714.3
2018-Jul-13 17:00N 49°00' W 123°08'0 0.0
2018-Jul-13 16:30N 49°00' W 123°08'815.3
2018-Jul-13 16:00N 48°54' W 123°15'612.9
2018-Jul-13 15:30N 48°49' W 123°20'816.3
2018-Jul-13 15:00N 48°41' W 123°25'6 6.2
2018-Jul-13 14:01N 48°47' W 123°21'917.1
2018-Jul-13 13:29N 48°55' W 123°15'714.3
2018-Jul-13 13:00N 49°00' W 123°08'0 0.0
2018-Jul-13 12:30N 49°00' W 123°08'0 0.0
2018-Jul-13 12:00N 49°00' W 123°08'0 0.0
2018-Jul-13 11:30N 49°00' W 123°08'0 0.0
2018-Jul-13 11:00N 49°00' W 123°08'0 0.0
2018-Jul-13 10:30N 49°00' W 123°08'0 0.0
2018-Jul-13 10:00N 49°00' W 123°08'0 0.0
2018-Jul-13 09:30N 49°00' W 123°08'0 0.0
2018-Jul-13 09:00N 49°00' W 123°08'0 0.0
2018-Jul-13 08:30N 49°00' W 123°08'0 0.0
2018-Jul-13 08:00N 49°00' W 123°08'0 0.0
2018-Jul-13 07:30N 49°00' W 123°08'0 0.0
2018-Jul-13 07:00N 49°00' W 123°08'0 0.0
2018-Jul-13 06:28N 49°00' W 123°08'0 0.0
2018-Jul-13 05:58N 49°00' W 123°08'0 0.0
2018-Jul-13 05:30N 49°00' W 123°08'0 0.0
2018-Jul-13 05:00N 49°00' W 123°08'0 0.0
2018-Jul-13 04:30N 49°00' W 123°08'916.0
2018-Jul-13 03:55N 48°53' W 123°17'512.8
2018-Jul-13 03:30N 48°48' W 123°20'815.2
2018-Jul-13 03:00N 48°41' W 123°25'0 0.0
2018-Jul-13 02:29N 48°41' W 123°25'714.1
2018-Jul-13 02:00N 48°48' W 123°21'816.1
2018-Jul-13 01:30N 48°55' W 123°16'714.7
2018-Jul-13 01:00N 49°00' W 123°08'0 0.0
2018-Jul-13 00:30N 49°00' W 123°08'815.6
2018-Jul-13 00:00N 48°54' W 123°16'714.2
2018-Jul-12 23:30N 48°48' W 123°21'714.0
2018-Jul-12 23:00N 48°41' W 123°25'0 0.1
2018-Jul-12 22:31N 48°41' W 123°25'815.7
2018-Jul-12 22:00N 48°49' W 123°21'  
Track history (hours):
 
Tides and Currents Weather Stations Pressure Air Temp Water Temp Dewpoint Dewpoint Depression Visibility Wind Speed Wind Dir Waves Ship Positions

Queen Of New West.

Last reported at 2018-Jul-22 21:30 UTC. Time now 2018-Jul-22 21:55 UTC.
Position N 48°48' W 123°21'.

Length 130 m; draft 4 m.

Type: Passenger vessel. MMSI: 316001255.

Date/timePositionNaut miles runAvg speedWind from/ knotsBaromVisibWave heightAir tempDewpointWater temp
2018-Jul-22 21:30N 48°48' W 123°21'714.3
2018-Jul-22 21:00N 48°41' W 123°25'0 0.0
2018-Jul-22 20:30N 48°41' W 123°25'917.3
2018-Jul-22 20:00N 48°50' W 123°21'815.3
2018-Jul-22 19:28N 48°57' W 123°14'511.7
2018-Jul-22 19:00N 49°00' W 123°08'0 0.0
2018-Jul-22 18:30N 49°00' W 123°08'814.9
2018-Jul-22 18:00N 48°55' W 123°15'713.5
2018-Jul-22 17:30N 48°49' W 123°21'815.9
2018-Jul-22 17:00N 48°41' W 123°25'0 0.0
2018-Jul-22 16:30N 48°41' W 123°25'713.8
2018-Jul-22 16:00N 48°48' W 123°21'1515.1
2018-Jul-22 15:00N 49°00' W 123°08'0 0.0
2018-Jul-22 14:30N 49°00' W 123°08'0 0.0
2018-Jul-22 13:57N 49°00' W 123°08'0 0.0
2018-Jul-22 13:15N 49°00' W 123°08'0 0.0
2018-Jul-22 12:57N 49°00' W 123°08'0 0.0
2018-Jul-22 12:15N 49°00' W 123°08'0 0.0
2018-Jul-22 11:48N 49°00' W 123°08'0 0.0
2018-Jul-22 11:30N 49°00' W 123°08'0 0.0
2018-Jul-22 11:00N 49°00' W 123°08'0 0.0
2018-Jul-22 10:27N 49°00' W 123°08'0 0.0
2018-Jul-22 10:00N 49°00' W 123°08'0 0.0
2018-Jul-22 09:21N 49°00' W 123°08'0 0.0
2018-Jul-22 08:54N 49°00' W 123°08'0 0.0
2018-Jul-22 08:30N 49°00' W 123°08'0 0.0
2018-Jul-22 07:57N 49°00' W 123°08'0 0.0
2018-Jul-22 07:03N 49°00' W 123°08'0 0.0
2018-Jul-22 06:54N 49°00' W 123°08'0 0.0
2018-Jul-22 06:30N 49°00' W 123°08'0 0.0
2018-Jul-22 05:24N 49°00' W 123°08'0 0.0
2018-Jul-22 04:54N 49°00' W 123°08'0 0.0
2018-Jul-22 04:31N 49°00' W 123°08'816.2
2018-Jul-22 04:00N 48°54' W 123°16'816.5
2018-Jul-22 03:30N 48°47' W 123°21'611.3
2018-Jul-22 03:00N 48°41' W 123°25'2 3.5
2018-Jul-22 02:30N 48°43' W 123°24'917.4
2018-Jul-22 02:00N 48°52' W 123°19'815.6
2018-Jul-22 01:30N 48°58' W 123°12'4 8.1
2018-Jul-22 01:00N 49°00' W 123°08'5 9.9
2018-Jul-22 00:28N 48°56' W 123°13'816.8
2018-Jul-22 00:00N 48°51' W 123°21'917.7
2018-Jul-21 23:30N 48°42' W 123°24'1 1.4
2018-Jul-21 23:00N 48°41' W 123°25'612.8
2018-Jul-21 22:30N 48°47' W 123°21'917.5
2018-Jul-21 22:00N 48°55' W 123°15'711.6
2018-Jul-21 21:24N 49°00' W 123°08'0 0.0
2018-Jul-21 21:00N 49°00' W 123°08'1118.0
2018-Jul-21 20:25N 48°52' W 123°18'615.6
2018-Jul-21 20:00N 48°46' W 123°22'510.3
2018-Jul-21 19:31N 48°41' W 123°25'4 8.3
2018-Jul-21 19:00N 48°45' W 123°22'1016.3
2018-Jul-21 18:23N 48°55' W 123°16'819.4
2018-Jul-21 18:00N 49°00' W 123°08'0 0.8
2018-Jul-21 17:30N 49°00' W 123°08'0 0.1
2018-Jul-21 17:00N 49°00' W 123°08'0 0.0
2018-Jul-21 16:30N 49°00' W 123°08'814.6
2018-Jul-21 15:59N 48°54' W 123°15'714.2
2018-Jul-21 15:30N 48°49' W 123°21'815.4
2018-Jul-21 15:00N 48°41' W 123°25'0 0.0
2018-Jul-21 14:30N 48°41' W 123°25'1614.7
2018-Jul-21 13:25N 48°56' W 123°15'6 1.8
2018-Jul-21 09:58N 49°00' W 123°08'0 0.0
2018-Jul-21 09:28N 49°00' W 123°08'0 0.0
2018-Jul-21 08:58N 49°00' W 123°08'0 0.0
2018-Jul-21 08:29N 49°00' W 123°08'611.7
2018-Jul-21 07:58N 48°55' W 123°13'715.6
2018-Jul-21 07:31N 48°51' W 123°21'918.5
2018-Jul-21 07:00N 48°42' W 123°24'0 0.3
2018-Jul-21 06:29N 48°41' W 123°25'814.4
2018-Jul-21 05:57N 48°49' W 123°21'715.0
2018-Jul-21 05:30N 48°55' W 123°17'815.6
2018-Jul-21 05:00N 49°00' W 123°08'0 0.3
2018-Jul-21 04:30N 49°00' W 123°08'815.1
2018-Jul-21 04:00N 48°55' W 123°15'612.9
2018-Jul-21 03:30N 48°49' W 123°21'816.2
2018-Jul-21 03:00N 48°41' W 123°25'0 0.0
2018-Jul-21 02:30N 48°41' W 123°25'713.7
2018-Jul-21 02:00N 48°48' W 123°21'815.8
2018-Jul-21 01:29N 48°55' W 123°16'714.8
2018-Jul-21 01:00N 49°00' W 123°08'0 0.0
2018-Jul-21 00:30N 49°00' W 123°08'815.6
2018-Jul-20 23:58N 48°54' W 123°16'613.8
2018-Jul-20 23:30N 48°48' W 123°21'714.2
2018-Jul-20 22:59N 48°41' W 123°25'0 0.0
2018-Jul-20 22:30N 48°41' W 123°25'612.9
2018-Jul-20 22:00N 48°47' W 123°21'916.1
2018-Jul-20 21:28N 48°55' W 123°15'715.4
2018-Jul-20 21:01N 49°00' W 123°08'0 0.1
2018-Jul-20 20:30N 49°00' W 123°08'1017.0
2018-Jul-20 19:56N 48°53' W 123°18'512.7
2018-Jul-20 19:30N 48°48' W 123°21'714.2
2018-Jul-20 19:00N 48°41' W 123°25'0 0.1
2018-Jul-20 18:30N 48°41' W 123°25'815.0
2018-Jul-20 18:00N 48°48' W 123°21'814.6
2018-Jul-20 17:28N 48°56' W 123°15'714.9
2018-Jul-20 17:01N 49°00' W 123°08'0 0.0
2018-Jul-20 16:30N 49°00' W 123°08'814.9
2018-Jul-20 15:59N 48°54' W 123°15'714.4
2018-Jul-20 15:30N 48°48' W 123°20'715.0
2018-Jul-20 15:00N 48°41' W 123°25'0 0.0
2018-Jul-20 14:30N 48°41' W 123°25'714.6
2018-Jul-20 14:00N 48°48' W 123°21'815.4
2018-Jul-20 13:27N 48°56' W 123°15'6 6.3
2018-Jul-20 12:26N 49°00' W 123°08'0 0.0
2018-Jul-20 10:39N 49°00' W 123°08'0 0.0
2018-Jul-20 10:15N 49°00' W 123°08'0 0.0
2018-Jul-20 10:00N 49°00' W 123°08'0 0.0
2018-Jul-20 09:21N 49°00' W 123°08'0 0.0
2018-Jul-20 08:00N 49°00' W 123°08'0 0.0
2018-Jul-20 07:27N 49°00' W 123°08'0 0.0
2018-Jul-20 07:00N 49°00' W 123°08'0 0.0
2018-Jul-20 06:30N 49°00' W 123°08'0 0.0
2018-Jul-20 06:00N 49°00' W 123°08'0 0.0
2018-Jul-20 05:30N 49°00' W 123°08'0 0.0
2018-Jul-20 04:54N 49°00' W 123°08'0 0.0
2018-Jul-20 04:30N 49°00' W 123°08'510.5
2018-Jul-20 04:00N 48°56' W 123°13'917.3
2018-Jul-20 03:31N 48°49' W 123°21'816.7
2018-Jul-20 03:01N 48°41' W 123°25'0 0.1
2018-Jul-20 02:30N 48°41' W 123°25'816.5
2018-Jul-20 02:00N 48°49' W 123°21'612.2
2018-Jul-20 01:30N 48°55' W 123°16'815.2
2018-Jul-20 01:00N 49°00' W 123°08'0 0.2
2018-Jul-20 00:30N 49°00' W 123°08'815.6
2018-Jul-19 23:59N 48°54' W 123°16'612.2
2018-Jul-19 23:30N 48°49' W 123°21'816.3
2018-Jul-19 23:00N 48°41' W 123°25'0 0.0
2018-Jul-19 22:31N 48°41' W 123°25'714.5
2018-Jul-19 22:00N 48°48' W 123°21'814.5
2018-Jul-19 21:28N 48°55' W 123°16'715.1
2018-Jul-19 20:59N 49°00' W 123°08'0 0.0
2018-Jul-19 20:30N 49°00' W 123°08'816.1
2018-Jul-19 20:00N 48°54' W 123°16'612.9
2018-Jul-19 19:30N 48°48' W 123°20'815.3
2018-Jul-19 19:00N 48°41' W 123°25'0 0.0
2018-Jul-19 18:30N 48°41' W 123°25'815.1
2018-Jul-19 18:00N 48°49' W 123°21'713.8
2018-Jul-19 17:30N 48°55' W 123°16'815.5
2018-Jul-19 17:00N 49°00' W 123°08'0 0.0
2018-Jul-19 16:30N 49°00' W 123°08'815.8
2018-Jul-19 15:59N 48°54' W 123°16'816.0
2018-Jul-19 15:30N 48°47' W 123°21'612.3
2018-Jul-19 15:00N 48°41' W 123°25'1 3.0
2018-Jul-19 14:30N 48°43' W 123°24'1717.1
2018-Jul-19 13:29N 48°58' W 123°11'3 6.7
2018-Jul-19 13:01N 49°00' W 123°08'0 0.0
2018-Jul-19 12:29N 49°00' W 123°08'0 0.0
2018-Jul-19 11:59N 49°00' W 123°08'0 0.0
2018-Jul-19 11:27N 49°00' W 123°08'0 0.0
2018-Jul-19 10:57N 49°00' W 123°08'0 0.0
2018-Jul-19 10:27N 49°00' W 123°08'0 0.0
2018-Jul-19 09:57N 49°00' W 123°08'0 0.0
2018-Jul-19 09:27N 49°00' W 123°08'0 0.0
2018-Jul-19 08:57N 49°00' W 123°08'0 0.0
2018-Jul-19 08:27N 49°00' W 123°08'0 0.0
2018-Jul-19 07:57N 49°00' W 123°08'0 0.0
2018-Jul-19 07:27N 49°00' W 123°08'0 0.0
2018-Jul-19 06:57N 49°00' W 123°08'0 0.0
2018-Jul-19 06:27N 49°00' W 123°08'0 0.0
2018-Jul-19 05:57N 49°00' W 123°08'0 0.0
2018-Jul-19 05:27N 49°00' W 123°08'0 0.0
2018-Jul-19 04:57N 49°00' W 123°08'0 0.0
2018-Jul-19 04:27N 49°00' W 123°08'612.6
2018-Jul-19 03:58N 48°56' W 123°13'716.1
2018-Jul-19 03:30N 48°50' W 123°21'917.6
2018-Jul-19 03:01N 48°42' W 123°25'0 0.2
2018-Jul-19 02:30N 48°41' W 123°25'814.8
2018-Jul-19 01:59N 48°49' W 123°21'713.6
2018-Jul-19 01:31N 48°55' W 123°17'815.7
2018-Jul-19 00:59N 49°00' W 123°08'0 0.0
2018-Jul-19 00:30N 49°00' W 123°08'712.7
2018-Jul-18 23:58N 48°55' W 123°15'714.9
2018-Jul-18 23:30N 48°50' W 123°21'817.0
2018-Jul-18 23:01N 48°41' W 123°25'0 0.1
2018-Jul-18 22:31N 48°41' W 123°25'713.4
2018-Jul-18 22:00N 48°48' W 123°21'815.5
2018-Jul-18 21:29N 48°55' W 123°16'715.6
2018-Jul-18 21:00N 49°00' W 123°08'0 0.1
2018-Jul-18 20:30N 49°00' W 123°08'1017.4
2018-Jul-18 19:56N 48°53' W 123°18'614.2
2018-Jul-18 19:30N 48°47' W 123°21'612.4
2018-Jul-18 19:00N 48°41' W 123°25'0 0.1
2018-Jul-18 18:31N 48°41' W 123°25'816.7
2018-Jul-18 18:00N 48°50' W 123°21'917.2
2018-Jul-18 17:28N 48°57' W 123°13'510.1
2018-Jul-18 17:00N 49°00' W 123°08'0 0.0
2018-Jul-18 16:29N 49°00' W 123°08'715.0
2018-Jul-18 16:00N 48°55' W 123°15'814.9
2018-Jul-18 15:30N 48°48' W 123°21'714.9
2018-Jul-18 15:01N 48°41' W 123°25'0 0.1
2018-Jul-18 14:30N 48°41' W 123°25'1514.7
2018-Jul-18 13:30N 48°55' W 123°16'714.6
2018-Jul-18 12:59N 49°00' W 123°08'0 0.0
2018-Jul-18 12:30N 49°00' W 123°08'0 0.0
2018-Jul-18 12:00N 49°00' W 123°08'0 0.0
2018-Jul-18 11:30N 49°00' W 123°08'0 0.0
2018-Jul-18 10:28N 49°00' W 123°08'0 0.0
2018-Jul-18 10:01N 49°00' W 123°08'0 0.0
2018-Jul-18 09:30N 49°00' W 123°08'0 0.0
2018-Jul-18 09:01N 49°00' W 123°08'0 0.0
2018-Jul-18 08:31N 49°00' W 123°08'0 0.0
2018-Jul-18 08:01N 49°00' W 123°08'0 0.0
2018-Jul-18 07:31N 49°00' W 123°08'0 0.0
2018-Jul-18 07:01N 49°00' W 123°08'0 0.0
2018-Jul-18 06:31N 49°00' W 123°08'0 0.0
2018-Jul-18 05:58N 49°00' W 123°08'0 0.0
2018-Jul-18 05:31N 49°00' W 123°08'0 0.0
2018-Jul-18 04:58N 49°00' W 123°08'0 0.0
2018-Jul-18 04:21N 49°00' W 123°08'615.3
2018-Jul-18 03:59N 48°56' W 123°13'816.5
2018-Jul-18 03:31N 48°50' W 123°21'917.4
2018-Jul-18 03:00N 48°41' W 123°25'0 0.1
2018-Jul-18 02:30N 48°41' W 123°25'814.7
2018-Jul-18 01:59N 48°49' W 123°21'914.5
2018-Jul-18 01:21N 48°57' W 123°14'515.2
2018-Jul-18 01:00N 49°00' W 123°08'0 0.0
2018-Jul-18 00:31N 49°00' W 123°08'612.9
2018-Jul-18 00:01N 48°55' W 123°14'816.7
2018-Jul-17 23:30N 48°48' W 123°21'714.6
2018-Jul-17 23:01N 48°41' W 123°25'0 0.0
2018-Jul-17 22:31N 48°41' W 123°25'713.4
2018-Jul-17 22:00N 48°48' W 123°21'1017.0
2018-Jul-17 21:26N 48°56' W 123°14'613.0
2018-Jul-17 21:00N 49°00' W 123°08'0 0.0
2018-Jul-17 20:30N 49°00' W 123°08'816.3
2018-Jul-17 19:59N 48°54' W 123°16'613.3
2018-Jul-17 19:30N 48°48' W 123°21'714.7
2018-Jul-17 19:00N 48°41' W 123°25'0 0.0
2018-Jul-17 18:31N 48°41' W 123°25'713.5
2018-Jul-17 18:00N 48°48' W 123°21'815.4
2018-Jul-17 17:27N 48°55' W 123°15'715.3
2018-Jul-17 17:00N 49°00' W 123°08'0 0.0
2018-Jul-17 16:30N 49°00' W 123°08'816.0
2018-Jul-17 15:59N 48°54' W 123°16'613.2
2018-Jul-17 15:30N 48°48' W 123°20'714.9
2018-Jul-17 15:00N 48°41' W 123°25'0 0.1
2018-Jul-17 14:31N 48°41' W 123°25'714.6
2018-Jul-17 14:00N 48°48' W 123°21'713.9
2018-Jul-17 13:31N 48°55' W 123°16'815.7
2018-Jul-17 13:00N 49°00' W 123°08'0 0.0
2018-Jul-17 12:30N 49°00' W 123°08'0 0.0
2018-Jul-17 11:58N 49°00' W 123°08'0 0.0
2018-Jul-17 11:25N 49°00' W 123°08'0 0.0
2018-Jul-17 10:58N 49°00' W 123°08'0 0.0
2018-Jul-17 10:28N 49°00' W 123°08'0 0.0
2018-Jul-17 09:56N 49°00' W 123°08'0 0.0
2018-Jul-17 09:26N 49°00' W 123°08'0 0.0
2018-Jul-17 08:58N 49°00' W 123°08'0 0.0
2018-Jul-17 08:19N 49°00' W 123°08'0 0.0
2018-Jul-17 07:58N 49°00' W 123°08'0 0.0
2018-Jul-17 07:25N 49°00' W 123°08'0 0.0
2018-Jul-17 06:55N 49°00' W 123°08'0 0.0
2018-Jul-17 06:07N 49°00' W 123°08'0 0.0
2018-Jul-17 05:55N 49°00' W 123°08'0 0.0
2018-Jul-17 05:19N 49°00' W 123°08'0 0.0
2018-Jul-17 04:52N 49°00' W 123°08'0 0.0
2018-Jul-17 04:28N 49°00' W 123°08'613.1
2018-Jul-17 04:00N 48°56' W 123°14'815.0
2018-Jul-17 03:30N 48°49' W 123°20'817.0
2018-Jul-17 03:00N 48°41' W 123°25'0 0.0
2018-Jul-17 02:30N 48°41' W 123°25'815.6
2018-Jul-17 02:00N 48°49' W 123°21'714.7
2018-Jul-17 01:30N 48°55' W 123°15'713.2
2018-Jul-17 00:58N 49°00' W 123°08'0 0.0
2018-Jul-17 00:30N 49°00' W 123°08'1414.6
2018-Jul-16 23:30N 48°49' W 123°21'815.4
2018-Jul-16 23:00N 48°41' W 123°25'0 0.0
2018-Jul-16 22:30N 48°41' W 123°25'714.5
2018-Jul-16 22:00N 48°48' W 123°21'815.0
2018-Jul-16 21:30N 48°55' W 123°16'715.0
2018-Jul-16 21:00N 49°00' W 123°08'0 0.0
2018-Jul-16 20:30N 49°00' W 123°08'814.5
2018-Jul-16 19:59N 48°54' W 123°15'715.0
2018-Jul-16 19:30N 48°48' W 123°21'714.7
2018-Jul-16 19:00N 48°41' W 123°25'0 0.0
2018-Jul-16 18:30N 48°41' W 123°25'713.4
2018-Jul-16 18:00N 48°48' W 123°21'816.0
2018-Jul-16 17:30N 48°55' W 123°16'815.1
2018-Jul-16 17:00N 49°00' W 123°08'0 0.0
2018-Jul-16 16:30N 49°00' W 123°08'714.5
2018-Jul-16 16:00N 48°55' W 123°15'713.5
2018-Jul-16 15:30N 48°49' W 123°20'816.2
2018-Jul-16 15:00N 48°41' W 123°25'0 0.0
2018-Jul-16 14:29N 48°41' W 123°25'613.1
2018-Jul-16 14:00N 48°47' W 123°21'815.6
2018-Jul-16 13:30N 48°55' W 123°17'813.5
2018-Jul-16 12:54N 49°00' W 123°08'0 0.0
2018-Jul-16 12:28N 49°00' W 123°08'0 0.0
2018-Jul-16 09:54N 49°00' W 123°08'0 0.0
2018-Jul-16 09:18N 49°00' W 123°08'0 0.0
2018-Jul-16 08:48N 49°00' W 123°08'0 0.0
2018-Jul-16 08:24N 49°00' W 123°08'0 0.0
2018-Jul-16 08:00N 49°00' W 123°08'0 0.0
2018-Jul-16 06:42N 49°00' W 123°08'0 0.0
2018-Jul-16 06:28N 49°00' W 123°08'715.4
2018-Jul-16 06:00N 48°55' W 123°15'714.5
2018-Jul-16 05:30N 48°49' W 123°21'814.4
2018-Jul-16 04:58N 48°41' W 123°25'0 0.9
2018-Jul-16 04:30N 48°42' W 123°24'918.3
2018-Jul-16 04:00N 48°51' W 123°21'1017.4
2018-Jul-16 03:25N 48°59' W 123°11'3 7.0
2018-Jul-16 03:00N 49°00' W 123°08'3 6.2
2018-Jul-16 02:30N 48°58' W 123°10'917.5
2018-Jul-16 01:59N 48°52' W 123°21'817.2
2018-Jul-16 01:30N 48°44' W 123°24'2 4.7
2018-Jul-16 01:00N 48°41' W 123°25'2 4.1
2018-Jul-16 00:30N 48°43' W 123°24'816.6
2018-Jul-16 00:00N 48°52' W 123°21'814.9
2018-Jul-15 23:27N 48°58' W 123°12'4 9.0
2018-Jul-15 23:00N 49°00' W 123°08'1 2.2
2018-Jul-15 22:29N 48°59' W 123°09'1020.5
2018-Jul-15 22:00N 48°52' W 123°19'714.5
2018-Jul-15 21:30N 48°45' W 123°23'4 7.7
2018-Jul-15 21:00N 48°41' W 123°25'1 2.2
2018-Jul-15 20:30N 48°42' W 123°26'917.7
2018-Jul-15 19:59N 48°51' W 123°21'611.9
2018-Jul-15 19:27N 48°55' W 123°15'714.8
2018-Jul-15 19:00N 49°00' W 123°08'0 0.1
2018-Jul-15 18:30N 49°00' W 123°08'0 0.0
2018-Jul-15 18:00N 49°00' W 123°08'0 0.9
2018-Jul-15 17:31N 49°00' W 123°08'2 3.0
2018-Jul-15 16:58N 48°58' W 123°08'5 6.4
2018-Jul-15 16:14N 48°55' W 123°03'0 0.4
2018-Jul-15 16:00N 48°55' W 123°03'3 5.5
2018-Jul-15 15:26N 48°58' W 123°06'3 7.1
2018-Jul-15 15:01N 49°00' W 123°08'0 0.0
2018-Jul-15 13:35N 49°00' W 123°08'0 0.0
2018-Jul-15 13:17N 49°00' W 123°08'0 0.0
2018-Jul-15 12:56N 49°00' W 123°08'0 0.0
2018-Jul-15 11:55N 49°00' W 123°08'0 0.0
2018-Jul-15 11:16N 49°00' W 123°08'0 0.0
2018-Jul-15 10:58N 49°00' W 123°08'0 0.0
2018-Jul-15 10:19N 49°00' W 123°08'0 0.0
2018-Jul-15 09:52N 49°00' W 123°08'0 0.0
2018-Jul-15 09:28N 49°00' W 123°08'0 0.0
2018-Jul-15 08:58N 49°00' W 123°08'0 0.0
2018-Jul-15 08:28N 49°00' W 123°08'0 0.0
2018-Jul-15 05:31N 49°00' W 123°08'0 0.0
2018-Jul-15 05:22N 49°00' W 123°08'0 0.0
2018-Jul-15 04:58N 49°00' W 123°08'0 0.0
2018-Jul-15 04:25N 49°00' W 123°08'0 0.0
2018-Jul-15 03:58N 49°00' W 123°08'0 0.0
2018-Jul-15 03:28N 49°00' W 123°08'0 0.0
2018-Jul-15 02:58N 49°00' W 123°08'0 0.0
2018-Jul-15 02:28N 49°00' W 123°08'0 0.0
2018-Jul-15 01:55N 49°00' W 123°08'0 0.0
2018-Jul-15 01:28N 49°00' W 123°08'0 0.0
2018-Jul-15 01:00N 49°00' W 123°08'3 5.4
2018-Jul-15 00:29N 48°58' W 123°10'714.8
2018-Jul-15 00:00N 48°53' W 123°18'510.6
2018-Jul-14 23:30N 48°48' W 123°21'713.8
2018-Jul-14 23:00N 48°41' W 123°25'0 0.9
2018-Jul-14 22:30N 48°42' W 123°24'917.9
2018-Jul-14 22:00N 48°51' W 123°21'815.1
2018-Jul-14 21:30N 48°56' W 123°14'510.9
2018-Jul-14 21:00N 49°00' W 123°08'0 0.5
2018-Jul-14 20:30N 49°00' W 123°08'918.3
2018-Jul-14 20:00N 48°53' W 123°17'815.4
2018-Jul-14 19:30N 48°46' W 123°21'5 9.0
2018-Jul-14 18:57N 48°41' W 123°25'0 0.6
2018-Jul-14 18:31N 48°42' W 123°25'612.6
2018-Jul-14 18:00N 48°47' W 123°21'816.0
2018-Jul-14 17:30N 48°55' W 123°16'815.5
2018-Jul-14 17:00N 49°00' W 123°08'0 0.2
2018-Jul-14 16:30N 49°00' W 123°08'714.8
2018-Jul-14 16:00N 48°55' W 123°15'713.3
2018-Jul-14 15:30N 48°49' W 123°20'816.2
2018-Jul-14 15:00N 48°41' W 123°25'0 0.0
2018-Jul-14 14:29N 48°41' W 123°25'1515.1
2018-Jul-14 13:30N 48°55' W 123°16'714.6
2018-Jul-14 13:00N 49°00' W 123°08'0 0.0
2018-Jul-14 12:29N 49°00' W 123°08'0 0.0
2018-Jul-14 12:00N 49°00' W 123°08'0 0.0
2018-Jul-14 11:27N 49°00' W 123°08'0 0.0
2018-Jul-14 10:57N 49°00' W 123°08'0 0.0
2018-Jul-14 10:27N 49°00' W 123°08'0 0.0
2018-Jul-14 09:09N 49°00' W 123°08'0 0.0
2018-Jul-14 08:57N 49°00' W 123°08'0 0.0
2018-Jul-14 08:21N 49°00' W 123°08'615.0
2018-Jul-14 07:55N 48°55' W 123°14'716.3
2018-Jul-14 07:29N 48°50' W 123°21'918.1
2018-Jul-14 07:00N 48°42' W 123°25'0 0.4
2018-Jul-14 06:30N 48°41' W 123°25'713.5
2018-Jul-14 06:00N 48°48' W 123°21'915.9
2018-Jul-14 05:25N 48°56' W 123°14'614.7
2018-Jul-14 05:00N 49°00' W 123°08'0 0.0
2018-Jul-14 04:30N 49°00' W 123°08'816.2
2018-Jul-14 04:00N 48°54' W 123°16'612.4
2018-Jul-14 03:30N 48°49' W 123°20'815.6
2018-Jul-14 03:00N 48°41' W 123°25'0 0.0
2018-Jul-14 02:30N 48°41' W 123°25'917.2
2018-Jul-14 02:01N 48°50' W 123°21'713.0
2018-Jul-14 01:30N 48°55' W 123°15'714.5
2018-Jul-14 01:00N 49°00' W 123°08'0 0.0
2018-Jul-14 00:30N 49°00' W 123°08'713.5
2018-Jul-14 00:00N 48°55' W 123°14'713.9
2018-Jul-13 23:30N 48°49' W 123°20'817.0
2018-Jul-13 23:00N 48°41' W 123°25'0 0.0
2018-Jul-13 22:30N 48°41' W 123°25'815.3
2018-Jul-13 22:00N 48°49' W 123°21'714.5
2018-Jul-13 21:30N 48°55' W 123°16'714.7
2018-Jul-13 21:00N 49°00' W 123°08'0 0.1
2018-Jul-13 20:29N 49°00' W 123°08'817.4
2018-Jul-13 20:00N 48°54' W 123°16'816.2
2018-Jul-13 19:30N 48°47' W 123°21'611.3
2018-Jul-13 19:00N 48°41' W 123°25'0 0.1
2018-Jul-13 18:30N 48°41' W 123°25'714.2
2018-Jul-13 18:00N 48°48' W 123°21'815.9
2018-Jul-13 17:30N 48°55' W 123°16'714.3
2018-Jul-13 17:00N 49°00' W 123°08'0 0.0
2018-Jul-13 16:30N 49°00' W 123°08'815.3
2018-Jul-13 16:00N 48°54' W 123°15'612.9
2018-Jul-13 15:30N 48°49' W 123°20'816.3
2018-Jul-13 15:00N 48°41' W 123°25'6 6.2
2018-Jul-13 14:01N 48°47' W 123°21'917.1
2018-Jul-13 13:29N 48°55' W 123°15'714.3
2018-Jul-13 13:00N 49°00' W 123°08'0 0.0
2018-Jul-13 12:30N 49°00' W 123°08'0 0.0
2018-Jul-13 12:00N 49°00' W 123°08'0 0.0
2018-Jul-13 11:30N 49°00' W 123°08'0 0.0
2018-Jul-13 11:00N 49°00' W 123°08'0 0.0
2018-Jul-13 10:30N 49°00' W 123°08'0 0.0
2018-Jul-13 10:00N 49°00' W 123°08'0 0.0
2018-Jul-13 09:30N 49°00' W 123°08'0 0.0
2018-Jul-13 09:00N 49°00' W 123°08'0 0.0
2018-Jul-13 08:30N 49°00' W 123°08'0 0.0
2018-Jul-13 08:00N 49°00' W 123°08'0 0.0
2018-Jul-13 07:30N 49°00' W 123°08'0 0.0
2018-Jul-13 07:00N 49°00' W 123°08'0 0.0
2018-Jul-13 06:28N 49°00' W 123°08'0 0.0
2018-Jul-13 05:58N 49°00' W 123°08'0 0.0
2018-Jul-13 05:30N 49°00' W 123°08'0 0.0
2018-Jul-13 05:00N 49°00' W 123°08'0 0.0
2018-Jul-13 04:30N 49°00' W 123°08'916.0
2018-Jul-13 03:55N 48°53' W 123°17'512.8
2018-Jul-13 03:30N 48°48' W 123°20'815.2
2018-Jul-13 03:00N 48°41' W 123°25'0 0.0
2018-Jul-13 02:29N 48°41' W 123°25'714.1
2018-Jul-13 02:00N 48°48' W 123°21'816.1
2018-Jul-13 01:30N 48°55' W 123°16'714.7
2018-Jul-13 01:00N 49°00' W 123°08'0 0.0
2018-Jul-13 00:30N 49°00' W 123°08'815.6
2018-Jul-13 00:00N 48°54' W 123°16'714.2
2018-Jul-12 23:30N 48°48' W 123°21'714.0
2018-Jul-12 23:00N 48°41' W 123°25'0 0.1
2018-Jul-12 22:31N 48°41' W 123°25'815.7
2018-Jul-12 22:00N 48°49' W 123°21'  

Dump ship's entire track history